Steedman, South Carolina
Current Conditions -  °F | °C
As of 2:22 AM on Sunday 23 Nov 2014 (Local Time) from KCAE Reporting Station
Overcast Overcast  
Wind Chill: 50°   Ceiling: 7000
Heat Index: 50°   Visibility: 9mi
Dew Point: 47°   Wind: 5mph
Humidity: 89%   Direction: 60°ENE
Pressure: 30.24"   Gusts: NA
Location:  33.8822°N, 81.433°W
Report Text: KCAE 230722Z 06004KT 9SM FEW007 BKN070 OVC085 10/08 A3024 RMK AO2 RAE04 P0000 T01000083
Loading
Personal Weather Stations






























Interactive Weather Map New forecast layout! Learn more

10-Day Weather Forecast

Advertisements
Track Severe Weather on mobile